createdAt,value
2023-12-09T00:00:13.292Z,100.00
2023-12-09T00:02:42.230Z,100.00
2023-12-09T00:05:10.856Z,100.00
2023-12-09T00:07:40.308Z,100.00
2023-12-09T00:10:09.071Z,100.00
2023-12-09T00:12:37.478Z,100.00
2023-12-09T00:15:06.995Z,100.00
2023-12-09T00:17:36.239Z,100.00
2023-12-09T00:20:07.302Z,100.00
2023-12-09T00:22:36.079Z,100.00
2023-12-09T00:25:05.898Z,100.00
2023-12-09T00:27:34.470Z,100.00
2023-12-09T00:30:03.137Z,100.00
2023-12-09T00:32:32.003Z,100.00
2023-12-09T00:35:01.590Z,100.00
2023-12-09T00:37:30.210Z,100.00
2023-12-09T00:39:58.735Z,100.00
2023-12-09T00:42:27.580Z,100.00
2023-12-09T00:44:56.274Z,100.00
2023-12-09T00:47:24.807Z,100.00
2023-12-09T00:49:53.379Z,100.00
2023-12-09T00:52:21.916Z,100.00
2023-12-09T00:54:50.444Z,100.00
2023-12-09T00:57:19.033Z,100.00
2023-12-09T00:59:47.601Z,100.00
2023-12-09T01:02:16.028Z,100.00
2023-12-09T01:04:45.221Z,100.00
2023-12-09T01:07:13.949Z,100.00
2023-12-09T01:09:42.341Z,100.00
2023-12-09T01:12:11.423Z,100.00
2023-12-09T01:14:39.862Z,100.00
2023-12-09T01:17:08.570Z,100.00
2023-12-09T01:19:37.060Z,100.00
2023-12-09T01:22:05.628Z,100.00
2023-12-09T01:24:34.163Z,100.00
2023-12-09T01:27:02.597Z,100.00
2023-12-09T01:29:31.027Z,100.00
2023-12-09T01:31:59.444Z,100.00
2023-12-09T01:34:27.917Z,100.00
2023-12-09T01:36:57.146Z,100.00
2023-12-09T01:39:25.647Z,100.00
2023-12-09T01:41:54.815Z,100.00
2023-12-09T01:44:23.217Z,100.00
2023-12-09T01:46:51.732Z,100.00
2023-12-09T01:49:20.395Z,99.89
2023-12-09T01:51:49.101Z,100.00
2023-12-09T01:54:17.794Z,99.74
2023-12-09T01:56:46.236Z,99.22
2023-12-09T01:59:15.167Z,98.48
2023-12-09T02:01:44.960Z,97.83
2023-12-09T02:04:14.916Z,97.75
2023-12-09T02:06:43.557Z,97.17
2023-12-09T02:09:12.393Z,96.61
2023-12-09T02:11:56.715Z,94.69
2023-12-09T02:14:42.940Z,95.41
2023-12-09T02:17:18.197Z,96.15
2023-12-09T02:19:47.049Z,93.40
2023-12-09T02:22:15.480Z,92.71
2023-12-09T02:24:43.984Z,92.63
2023-12-09T02:27:17.878Z,91.96
2023-12-09T02:29:57.235Z,92.49
2023-12-09T02:32:28.617Z,91.39
2023-12-09T02:34:58.814Z,90.41
2023-12-09T02:37:31.032Z,89.81
2023-12-09T02:40:02.003Z,90.79
2023-12-09T02:42:31.282Z,89.88
2023-12-09T02:45:00.355Z,90.38
2023-12-09T02:47:28.948Z,89.25
2023-12-09T02:49:57.570Z,87.42
2023-12-09T02:52:26.467Z,84.98
2023-12-09T02:54:55.053Z,85.04
2023-12-09T02:57:23.857Z,85.62
2023-12-09T02:59:52.441Z,85.86
2023-12-09T03:02:21.085Z,85.14
2023-12-09T03:04:49.590Z,84.35
2023-12-09T03:07:22.350Z,84.07
2023-12-09T03:09:50.904Z,82.53
2023-12-09T03:12:19.556Z,84.38
2023-12-09T03:14:48.183Z,84.68
2023-12-09T03:17:16.766Z,84.25
2023-12-09T03:19:45.822Z,81.88
2023-12-09T03:22:14.473Z,79.59
2023-12-09T03:24:45.842Z,78.23
2023-12-09T03:27:14.393Z,78.99
2023-12-09T03:29:43.024Z,81.31
2023-12-09T03:32:11.508Z,79.51
2023-12-09T03:34:40.107Z,79.68
2023-12-09T03:37:08.682Z,79.67
2023-12-09T03:39:37.158Z,79.38
2023-12-09T03:42:05.817Z,78.98
2023-12-09T03:44:34.320Z,78.77
2023-12-09T03:47:06.867Z,79.21
2023-12-09T03:49:40.240Z,78.56
2023-12-09T03:52:08.962Z,73.48
2023-12-09T03:54:39.981Z,78.17
2023-12-09T03:57:08.736Z,74.96
2023-12-09T03:59:40.876Z,74.17
2023-12-09T04:02:09.480Z,74.74
2023-12-09T04:04:42.978Z,73.26
2023-12-09T04:07:11.543Z,74.08
2023-12-09T04:09:40.117Z,75.73
2023-12-09T04:12:08.757Z,74.75
2023-12-09T04:14:37.387Z,74.26
2023-12-09T04:17:06.047Z,76.04
2023-12-09T04:19:34.981Z,76.46
2023-12-09T04:22:03.755Z,76.85
2023-12-09T04:24:32.341Z,73.19
2023-12-09T04:27:00.866Z,74.00
2023-12-09T04:29:29.430Z,74.62
2023-12-09T04:31:59.427Z,72.90
2023-12-09T04:34:28.603Z,70.59
2023-12-09T04:36:57.254Z,71.81
2023-12-09T04:39:26.006Z,74.50
2023-12-09T04:41:54.569Z,72.55
2023-12-09T04:44:25.228Z,72.61
2023-12-09T04:46:53.878Z,72.38
2023-12-09T04:49:23.919Z,67.83
2023-12-09T04:51:52.572Z,68.59
2023-12-09T04:54:21.143Z,66.93
2023-12-09T04:56:49.732Z,70.29
2023-12-09T04:59:18.360Z,66.26
2023-12-09T05:01:47.495Z,66.32
2023-12-09T05:04:16.532Z,68.34
2023-12-09T05:06:45.535Z,66.05
2023-12-09T05:09:15.335Z,69.38
2023-12-09T05:11:43.742Z,70.00
2023-12-09T05:14:12.174Z,68.33
2023-12-09T05:16:40.613Z,67.66
2023-12-09T05:19:09.625Z,67.10
2023-12-09T05:21:38.176Z,68.38
2023-12-09T05:24:07.214Z,66.77
2023-12-09T05:26:35.738Z,66.55
2023-12-09T05:29:05.473Z,69.29
2023-12-09T05:31:33.910Z,66.25
2023-12-09T05:34:03.543Z,68.73
2023-12-09T05:36:32.130Z,68.69
2023-12-09T05:39:00.648Z,66.40
2023-12-09T05:41:29.184Z,67.13
2023-12-09T05:43:57.577Z,64.75
2023-12-09T05:46:25.977Z,68.30
2023-12-09T05:48:54.563Z,62.81
2023-12-09T05:51:23.247Z,66.24
2023-12-09T05:53:51.696Z,66.29
2023-12-09T05:56:20.151Z,67.62
2023-12-09T05:58:48.638Z,65.94
2023-12-09T06:01:17.209Z,64.17
2023-12-09T06:03:45.812Z,66.50
2023-12-09T06:06:14.543Z,63.61
2023-12-09T06:08:43.247Z,66.93
2023-12-09T06:11:11.840Z,67.85
2023-12-09T06:13:40.404Z,64.25
2023-12-09T06:16:09.542Z,60.87
2023-12-09T06:18:38.104Z,61.44
2023-12-09T06:21:06.928Z,66.55
2023-12-09T06:23:36.046Z,64.01
2023-12-09T06:26:05.342Z,61.00
2023-12-09T06:28:33.875Z,60.90
2023-12-09T06:31:04.408Z,65.22
2023-12-09T06:33:33.187Z,62.68
2023-12-09T06:36:01.790Z,65.13
2023-12-09T06:38:31.530Z,63.89
2023-12-09T06:40:59.996Z,63.45
2023-12-09T06:43:28.517Z,62.35
2023-12-09T06:45:56.932Z,61.17
2023-12-09T06:48:25.499Z,60.28
2023-12-09T06:50:54.023Z,59.76
2023-12-09T06:53:22.526Z,60.60
2023-12-09T06:55:50.974Z,62.39
2023-12-09T06:58:19.703Z,61.83
2023-12-09T07:00:48.902Z,63.02
2023-12-09T07:03:17.620Z,63.81
2023-12-09T07:05:46.148Z,62.32
2023-12-09T07:08:14.614Z,61.15
2023-12-09T07:10:48.301Z,61.70
2023-12-09T07:13:16.735Z,62.45
2023-12-09T07:15:45.447Z,59.60
2023-12-09T07:18:15.892Z,60.71
2023-12-09T07:20:46.343Z,60.12
2023-12-09T07:23:16.361Z,64.02
2023-12-09T07:25:45.279Z,58.50
2023-12-09T07:28:13.938Z,58.99
2023-12-09T07:30:42.527Z,59.71
2023-12-09T07:33:11.226Z,58.87
2023-12-09T07:35:41.700Z,61.01
2023-12-09T07:38:10.666Z,60.33
2023-12-09T07:40:39.136Z,58.40
2023-12-09T07:43:09.102Z,59.61
2023-12-09T07:45:37.643Z,59.15
2023-12-09T07:48:06.729Z,61.14
2023-12-09T07:50:37.067Z,58.84
2023-12-09T07:53:06.325Z,58.13
2023-12-09T07:55:34.973Z,59.50
2023-12-09T07:58:03.420Z,59.01
2023-12-09T08:00:32.177Z,59.63
2023-12-09T08:03:06.730Z,60.64
2023-12-09T08:05:38.915Z,58.71
2023-12-09T08:08:07.389Z,62.37
2023-12-09T08:10:35.774Z,61.25
2023-12-09T08:13:05.605Z,60.13
2023-12-09T08:15:34.118Z,62.69
2023-12-09T08:18:02.712Z,60.91
2023-12-09T08:20:31.289Z,60.47
2023-12-09T08:22:59.768Z,60.31
2023-12-09T08:25:28.226Z,59.42
2023-12-09T08:27:56.893Z,58.29
2023-12-09T08:30:25.510Z,58.43
2023-12-09T08:32:54.080Z,60.96
2023-12-09T08:35:22.930Z,60.64
2023-12-09T08:37:51.484Z,61.29
2023-12-09T08:40:20.001Z,61.14
2023-12-09T08:42:49.235Z,61.48
2023-12-09T08:45:19.327Z,61.91
2023-12-09T08:47:48.239Z,61.54
2023-12-09T08:52:48.961Z,62.29
2023-12-09T08:55:19.383Z,62.67
2023-12-09T08:57:48.223Z,63.50
2023-12-09T09:00:21.240Z,61.46
2023-12-09T09:02:50.070Z,62.10
2023-12-09T09:05:18.735Z,61.36
2023-12-09T09:07:47.514Z,61.13
2023-12-09T09:10:20.961Z,61.58
2023-12-09T09:12:49.860Z,61.72
2023-12-09T09:15:19.166Z,61.63
2023-12-09T09:17:47.806Z,62.01
2023-12-09T09:20:16.409Z,62.81
2023-12-09T09:22:47.156Z,62.54
2023-12-09T09:25:17.474Z,62.79
2023-12-09T09:27:46.333Z,63.26
2023-12-09T09:30:15.569Z,63.51
2023-12-09T09:32:44.322Z,63.09
2023-12-09T09:35:13.349Z,63.66
2023-12-09T09:37:41.871Z,63.61
2023-12-09T09:40:13.561Z,64.01
2023-12-09T09:42:46.422Z,64.66
2023-12-09T09:45:31.423Z,65.24
2023-12-09T09:48:08.138Z,66.63
2023-12-09T09:50:46.421Z,68.02
2023-12-09T09:53:18.459Z,68.20
2023-12-09T09:55:48.819Z,68.04
2023-12-09T09:58:19.112Z,67.72
2023-12-09T10:00:47.967Z,68.34
2023-12-09T10:03:16.530Z,69.57
2023-12-09T10:05:45.457Z,69.89
2023-12-09T10:08:14.001Z,69.67
2023-12-09T10:10:42.741Z,69.17
2023-12-09T10:13:11.378Z,69.54
2023-12-09T10:15:39.992Z,70.37
2023-12-09T10:18:14.326Z,70.57
2023-12-09T10:20:43.808Z,71.17
2023-12-09T10:23:13.148Z,71.53
2023-12-09T10:25:42.714Z,72.24
2023-12-09T10:28:11.607Z,73.58
2023-12-09T10:30:40.621Z,74.14
2023-12-09T10:33:09.559Z,74.19
2023-12-09T10:35:38.171Z,75.35
2023-12-09T10:38:13.878Z,75.73
2023-12-09T10:40:42.338Z,75.31
2023-12-09T10:43:10.814Z,75.55
2023-12-09T10:45:39.439Z,76.41
2023-12-09T10:48:09.261Z,76.88
2023-12-09T10:50:41.864Z,76.20
2023-12-09T10:53:10.654Z,76.24
2023-12-09T10:55:39.232Z,76.88
2023-12-09T10:58:08.768Z,77.81
2023-12-09T11:00:41.287Z,78.21
2023-12-09T11:03:11.031Z,77.73
2023-12-09T11:05:48.807Z,77.95
2023-12-09T11:08:18.283Z,77.86
2023-12-09T11:10:47.751Z,78.50
2023-12-09T11:13:16.627Z,79.29
2023-12-09T11:15:45.458Z,79.74
2023-12-09T11:18:16.241Z,80.43
2023-12-09T11:20:46.753Z,80.80
2023-12-09T11:23:16.216Z,80.15
2023-12-09T11:25:45.747Z,79.75
2023-12-09T11:28:14.555Z,78.90
2023-12-09T11:30:46.727Z,79.34
2023-12-09T11:33:15.714Z,79.07
2023-12-09T11:35:47.911Z,79.77
2023-12-09T11:38:17.646Z,80.41
2023-12-09T11:40:47.783Z,80.39
2023-12-09T11:43:18.324Z,80.92
2023-12-09T11:45:47.939Z,81.23
2023-12-09T11:48:17.858Z,81.12
2023-12-09T11:50:46.400Z,80.53
2023-12-09T11:53:14.868Z,81.34
2023-12-09T11:55:43.559Z,82.34
2023-12-09T11:58:12.073Z,82.72
2023-12-09T12:00:40.574Z,83.21
2023-12-09T12:03:09.177Z,84.02
2023-12-09T12:05:39.023Z,85.09
2023-12-09T12:08:07.781Z,85.19
2023-12-09T12:10:38.336Z,85.85
2023-12-09T12:13:07.011Z,86.06
2023-12-09T12:15:35.630Z,86.73
2023-12-09T12:18:04.319Z,87.43
2023-12-09T12:20:32.945Z,87.75
2023-12-09T12:23:01.378Z,88.58
2023-12-09T12:25:29.896Z,89.30
2023-12-09T12:27:59.376Z,89.71
2023-12-09T12:30:28.970Z,89.54
2023-12-09T12:32:59.205Z,88.79
2023-12-09T12:35:28.574Z,89.01
2023-12-09T12:37:59.037Z,89.63
2023-12-09T12:40:28.539Z,90.41
2023-12-09T12:42:57.469Z,90.05
2023-12-09T12:45:28.386Z,90.21
2023-12-09T12:47:57.820Z,90.71
2023-12-09T12:50:26.555Z,90.46
2023-12-09T12:52:55.416Z,90.27
2023-12-09T12:55:24.084Z,90.56
2023-12-09T12:57:54.225Z,90.97
2023-12-09T13:00:23.576Z,91.11
2023-12-09T13:02:52.329Z,91.47
2023-12-09T13:05:20.860Z,92.26
2023-12-09T13:07:50.172Z,92.35
2023-12-09T13:10:18.989Z,92.74
2023-12-09T13:12:47.984Z,92.24
2023-12-09T13:15:16.602Z,92.86
2023-12-09T13:17:46.528Z,92.71
2023-12-09T13:20:15.046Z,93.60
2023-12-09T13:22:43.533Z,93.08
2023-12-09T13:25:12.247Z,92.98
2023-12-09T13:27:40.742Z,93.41
2023-12-09T13:30:10.443Z,93.53
2023-12-09T13:32:41.582Z,94.21
2023-12-09T13:35:12.429Z,93.97
2023-12-09T13:37:41.057Z,92.15
2023-12-09T13:40:11.726Z,89.55
2023-12-09T13:42:40.450Z,89.16
2023-12-09T13:45:09.727Z,91.01
2023-12-09T13:47:38.252Z,92.98
2023-12-09T13:50:07.647Z,94.12
2023-12-09T13:52:36.637Z,94.12
2023-12-09T13:55:07.033Z,94.29
2023-12-09T13:57:35.981Z,94.38
2023-12-09T14:00:09.834Z,94.89
2023-12-09T14:02:41.254Z,95.91
2023-12-09T14:05:11.940Z,96.85
2023-12-09T14:07:41.850Z,95.08
2023-12-09T14:10:10.950Z,95.93
2023-12-09T14:12:39.487Z,96.28
2023-12-09T14:15:09.524Z,94.93
2023-12-09T14:17:38.797Z,96.39
2023-12-09T14:20:08.323Z,95.49
2023-12-09T14:22:36.822Z,94.93
2023-12-09T14:25:06.169Z,96.74
2023-12-09T14:27:36.243Z,96.21
2023-12-09T14:30:05.094Z,94.32
2023-12-09T14:32:34.206Z,96.12
2023-12-09T14:35:02.816Z,97.21
2023-12-09T14:37:33.240Z,96.21
2023-12-09T14:40:02.763Z,96.62
2023-12-09T14:42:31.516Z,97.60
2023-12-09T14:45:00.181Z,98.03
2023-12-09T14:47:28.866Z,97.46
2023-12-09T14:49:57.489Z,97.40
2023-12-09T14:52:26.974Z,97.57
2023-12-09T14:54:55.677Z,98.51
2023-12-09T14:57:24.451Z,97.81
2023-12-09T14:59:53.133Z,97.86
2023-12-09T15:02:21.644Z,97.59
2023-12-09T15:04:50.275Z,97.80
2023-12-09T15:07:18.907Z,97.87
2023-12-09T15:09:47.447Z,98.80
2023-12-09T15:12:16.121Z,99.65
2023-12-09T15:14:44.578Z,100.00
2023-12-09T15:17:16.028Z,99.55
2023-12-09T15:19:44.866Z,99.98
2023-12-09T15:22:14.526Z,100.00
2023-12-09T15:24:44.618Z,100.00
2023-12-09T15:27:13.277Z,100.00
2023-12-09T15:29:41.690Z,100.00
2023-12-09T15:32:10.131Z,100.00
2023-12-09T15:34:38.615Z,100.00
2023-12-09T15:37:07.129Z,100.00
2023-12-09T15:39:35.637Z,100.00
2023-12-09T15:42:04.166Z,100.00
2023-12-09T15:44:32.638Z,100.00
2023-12-09T15:47:01.279Z,100.00
2023-12-09T15:49:29.998Z,99.62
2023-12-09T15:51:58.486Z,100.00
2023-12-09T15:54:27.012Z,100.00
2023-12-09T15:56:55.529Z,100.00
2023-12-09T15:59:24.024Z,100.00
2023-12-09T16:01:55.097Z,100.00
2023-12-09T16:04:24.308Z,100.00
2023-12-09T16:06:52.796Z,100.00
2023-12-09T16:09:21.408Z,100.00
2023-12-09T16:11:49.844Z,100.00
2023-12-09T16:14:18.337Z,100.00
2023-12-09T16:16:46.824Z,100.00
2023-12-09T16:19:15.248Z,100.00
2023-12-09T16:21:43.949Z,100.00
2023-12-09T16:24:12.699Z,100.00
2023-12-09T16:26:41.202Z,100.00
2023-12-09T16:29:10.099Z,100.00
2023-12-09T16:31:38.575Z,100.00
2023-12-09T16:34:07.950Z,100.00
2023-12-09T16:36:36.542Z,100.00
2023-12-09T16:39:05.072Z,100.00
2023-12-09T16:41:33.518Z,100.00
2023-12-09T16:44:01.973Z,100.00
2023-12-09T16:46:30.537Z,100.00
2023-12-09T16:48:59.178Z,100.00
2023-12-09T16:51:27.746Z,100.00
2023-12-09T16:53:56.260Z,100.00
2023-12-09T16:56:24.705Z,100.00
2023-12-09T16:58:53.241Z,100.00
2023-12-09T17:01:21.689Z,100.00
2023-12-09T17:03:50.177Z,100.00
2023-12-09T17:06:18.663Z,100.00
2023-12-09T17:08:47.183Z,100.00
2023-12-09T17:11:15.831Z,99.42
2023-12-09T17:13:44.297Z,99.67
2023-12-09T17:16:13.697Z,100.00
2023-12-09T17:18:42.299Z,100.00
2023-12-09T17:21:10.864Z,100.00
2023-12-09T17:23:41.800Z,100.00
2023-12-09T17:26:10.619Z,100.00
2023-12-09T17:28:39.033Z,100.00
2023-12-09T17:31:07.966Z,100.00
2023-12-09T17:33:36.723Z,100.00
2023-12-09T17:36:05.918Z,100.00
2023-12-09T17:38:34.559Z,100.00
2023-12-09T17:41:04.227Z,100.00
2023-12-09T17:43:32.675Z,100.00
2023-12-09T17:46:01.124Z,100.00
2023-12-09T17:48:29.933Z,100.00
2023-12-09T17:50:58.488Z,100.00
2023-12-09T17:53:27.053Z,100.00
2023-12-09T17:55:55.571Z,100.00
2023-12-09T17:58:24.206Z,100.00
2023-12-09T18:00:53.495Z,100.00
2023-12-09T18:03:22.918Z,100.00
2023-12-09T18:05:54.669Z,100.00
2023-12-09T18:08:23.415Z,100.00
2023-12-09T18:10:51.968Z,100.00
2023-12-09T18:13:20.542Z,100.00
2023-12-09T18:15:49.593Z,100.00
2023-12-09T18:18:18.624Z,100.00
2023-12-09T18:20:49.126Z,100.00
2023-12-09T18:23:17.663Z,100.00
2023-12-09T18:25:46.271Z,100.00
2023-12-09T18:28:15.024Z,100.00
2023-12-09T18:30:43.728Z,100.00
2023-12-09T18:33:12.446Z,100.00
2023-12-09T18:35:41.077Z,100.00
2023-12-09T18:38:10.138Z,100.00
2023-12-09T18:40:38.801Z,100.00
2023-12-09T18:43:07.429Z,100.00
2023-12-09T18:45:37.663Z,100.00
2023-12-09T18:48:06.735Z,100.00
2023-12-09T18:50:35.297Z,100.00
2023-12-09T18:53:03.827Z,100.00
2023-12-09T18:55:32.365Z,100.00
2023-12-09T18:58:01.377Z,100.00
2023-12-09T19:00:30.059Z,100.00
2023-12-09T19:03:02.442Z,100.00
2023-12-09T19:05:31.121Z,100.00
2023-12-09T19:07:59.863Z,100.00
2023-12-09T19:10:28.423Z,100.00
2023-12-09T19:13:00.886Z,100.00
2023-12-09T19:15:29.544Z,100.00
2023-12-09T19:17:58.288Z,100.00
2023-12-09T19:20:26.836Z,100.00
2023-12-09T19:22:56.019Z,100.00
2023-12-09T19:25:24.760Z,100.00
2023-12-09T19:27:56.815Z,100.00
2023-12-09T19:30:25.376Z,100.00
2023-12-09T19:32:53.972Z,100.00
2023-12-09T19:35:22.587Z,100.00
2023-12-09T19:37:51.682Z,100.00
2023-12-09T19:40:20.176Z,100.00
2023-12-09T19:42:48.890Z,100.00
2023-12-09T19:45:17.480Z,100.00
2023-12-09T19:47:46.088Z,100.00
2023-12-09T19:50:14.755Z,100.00
2023-12-09T19:52:43.288Z,100.00
2023-12-09T19:55:11.926Z,100.00
2023-12-09T19:57:40.687Z,100.00
2023-12-09T20:00:10.048Z,100.00
2023-12-09T20:02:38.994Z,100.00
2023-12-09T20:05:07.927Z,100.00
2023-12-09T20:07:36.539Z,100.00
2023-12-09T20:10:05.424Z,100.00
2023-12-09T20:12:34.072Z,100.00
2023-12-09T20:15:04.073Z,100.00
2023-12-09T20:17:32.662Z,100.00
2023-12-09T20:20:01.232Z,100.00
2023-12-09T20:22:29.949Z,100.00
2023-12-09T20:24:58.638Z,100.00
2023-12-09T20:27:27.169Z,100.00
2023-12-09T20:29:56.375Z,100.00
2023-12-09T20:32:25.151Z,100.00
2023-12-09T20:34:53.772Z,100.00
2023-12-09T20:37:22.929Z,100.00
2023-12-09T20:39:51.560Z,100.00
2023-12-09T20:42:20.089Z,100.00
2023-12-09T20:44:48.659Z,100.00
2023-12-09T20:47:18.008Z,100.00
2023-12-09T20:49:46.962Z,100.00
2023-12-09T20:52:15.508Z,100.00
2023-12-09T20:54:47.132Z,100.00
2023-12-09T20:57:16.495Z,100.00
2023-12-09T20:59:45.898Z,100.00
2023-12-09T21:02:14.448Z,100.00
2023-12-09T21:04:46.493Z,100.00
2023-12-09T21:07:15.041Z,100.00
2023-12-09T21:09:43.753Z,100.00
2023-12-09T21:12:12.285Z,100.00
2023-12-09T21:14:40.886Z,100.00
2023-12-09T21:17:10.540Z,100.00
2023-12-09T21:19:39.553Z,100.00
2023-12-09T21:22:08.267Z,100.00
2023-12-09T21:24:37.898Z,100.00
2023-12-09T21:27:06.669Z,100.00
2023-12-09T21:29:35.427Z,100.00
2023-12-09T21:32:03.965Z,100.00
2023-12-09T21:34:32.548Z,100.00
2023-12-09T21:37:01.185Z,100.00
2023-12-09T21:39:29.850Z,100.00
2023-12-09T21:41:58.410Z,100.00
2023-12-09T21:44:26.995Z,100.00
2023-12-09T21:46:55.572Z,100.00
2023-12-09T21:49:24.224Z,100.00
2023-12-09T21:51:52.992Z,100.00
2023-12-09T21:54:21.599Z,100.00
2023-12-09T21:56:50.133Z,100.00
2023-12-09T21:59:18.661Z,100.00
2023-12-09T22:01:50.518Z,100.00
2023-12-09T22:04:20.155Z,100.00
2023-12-09T22:06:48.825Z,100.00
2023-12-09T22:09:17.374Z,100.00
2023-12-09T22:11:45.888Z,100.00
2023-12-09T22:14:14.396Z,100.00
2023-12-09T22:16:45.546Z,100.00
2023-12-09T22:19:14.227Z,100.00
2023-12-09T22:21:45.157Z,100.00
2023-12-09T22:24:14.052Z,100.00
2023-12-09T22:26:46.614Z,100.00
2023-12-09T22:29:15.152Z,100.00
2023-12-09T22:31:44.948Z,100.00
2023-12-09T22:34:13.612Z,100.00
2023-12-09T22:36:42.332Z,100.00
2023-12-09T22:39:14.119Z,100.00
2023-12-09T22:41:42.779Z,100.00
2023-12-09T22:44:11.234Z,100.00
2023-12-09T22:46:39.810Z,100.00
2023-12-09T22:49:08.623Z,100.00
2023-12-09T22:51:38.079Z,100.00
2023-12-09T22:54:06.803Z,100.00
2023-12-09T22:56:35.316Z,100.00
2023-12-09T22:59:03.836Z,100.00
2023-12-09T23:01:36.890Z,100.00
2023-12-09T23:04:05.517Z,100.00
2023-12-09T23:06:34.567Z,100.00
2023-12-09T23:09:03.063Z,100.00
2023-12-09T23:11:31.517Z,100.00
2023-12-09T23:14:00.008Z,100.00
2023-12-09T23:16:28.490Z,100.00
2023-12-09T23:18:57.552Z,100.00
2023-12-09T23:21:26.020Z,100.00
2023-12-09T23:23:54.952Z,100.00
2023-12-09T23:26:23.419Z,100.00
2023-12-09T23:28:51.907Z,100.00
2023-12-09T23:31:28.287Z,100.00
2023-12-09T23:34:00.493Z,100.00
2023-12-09T23:36:29.102Z,100.00
2023-12-09T23:38:57.556Z,100.00
2023-12-09T23:41:26.035Z,100.00
2023-12-09T23:43:54.557Z,100.00
2023-12-09T23:46:23.316Z,100.00
2023-12-09T23:48:51.945Z,100.00
2023-12-09T23:51:20.462Z,100.00
2023-12-09T23:53:48.872Z,100.00
2023-12-09T23:56:25.630Z,100.00
2023-12-09T23:58:54.116Z,100.00
